EPPO/POZ METAR and TAF weather

Enter ICAO airport designator
Station Type Date Time Source
EPPO METAR 2019/08/24 20:30 UTC NOAA

EPPO 242030Z 09008KT CAVOK 20/11 Q1024


Station Type Date Time Source
EPPO Decoded METAR 2019/08/24 20:30 UTC NOAA

Station name not available
Aug 24, 2019 - 04:30 PM EDT / 2019.08.24 2030 UTC
Wind: from the E (090 degrees) at 9 MPH (8 KT):0
Visibility: greater than 7 mile(s):0
Temperature: 68 F (20 C)
Dew Point: 51 F (11 C)
Relative Humidity: 56%
Pressure (altimeter): 30.24 in. Hg (1024 hPa)
ob: EPPO 242030Z 09008KT CAVOK 20/11 Q1024
cycle: 20

Station Type Date Time Source
EPPO TAF 2019/08/24 18:37 UTC NOAA

TAF EPPO 241730Z 2418/2518 09008KT CAVOK

Example: see airport list